Békásmegyer ÉK további részletek Békásmegyer ÉK


Békásmegyer DK további részletek Békásmegyer DK


Csillaghegy NY további részletek Csillaghegy NY


Előrejelzés további részletek Előrejelzés


Eu hőtérkép további részletek Eu hőtérkép


Műhold további részletek Műhold


Radar további részletek Radar


EU min. hőtérkép további részletek EU min. hőtérkép


EU max. hőtérkép további részletek EU max. hőtérkép



No particular awareness of the weather is required.    There are no Weather-warnings

Közeli METAR jelentések

   
LHBP - Budapest
Távolság az állomástól: DK 24 km
Frissítve: Mar 5 2021 8:30 pm
Közepesen felhős  
Közepesen felhős  
   Szél: ÉNY 20.4 km/h
Szél: ÉNY 20.4 km/h
Hőmérséklet: 4°C
Szélhűtés: 0°C
Harmatpont: -4°C
Páratartalom: 56%
Légnyomás: 1022 hPa
Felhők: Közepesen felhős
Látótávolság: More than 10 km
Felhő fajták: Kissé felhős 3000 ft,
Közepesen felhős 7000 ft
LHBP 051930Z 32011KT 9999 FEW030 SCT070 04/M04 Q1022 NOSIG
LHDC - Debrecen
Távolság az állomástól: K 192 km
Frissítve: Mar 5 2021 8:45 pm
Derült  
Derült  
   Szél: É 24.1 km/h<br />Gust to 24.1 km/h
Szél: É 24.1 km/h
Gust to 24.1 km/h
Hőmérséklet: 2°C
Szélhűtés: -3°C
Harmatpont: -2°C
Páratartalom: 75%
Légnyomás: 1021 hPa
Látótávolság: More than 10 km
Felhő fajták: Derült
LHDC 051945Z AUTO 36013G23KT 320V030 CAVOK 02/M02 Q1021
LHKE - Kecskemét
Távolság az állomástól: DK 91 km
Frissítve: Mar 5 2021 8:45 pm
Borult  
Borult  
   Szél: ÉK 14.8 km/h
Szél: ÉK 14.8 km/h
Hőmérséklet: 3°C
Szélhűtés: -1°C
Harmatpont: -1°C
Páratartalom: 75%
Légnyomás: 1022 hPa
Felhők: Borult
Látótávolság: More than 10 km
Felhő fajták: Borult 3700 ft
LHKE 051945Z 04008KT 9999 OVC037 03/M01 Q1022 R12/01//95 NOSIG RMK BLU
LHPA - Pápa
Távolság az állomástól: NY 121 km
Frissítve: Mar 5 2021 8:45 pm
Derült  
Derült  
   Szél: É 18.5 km/h
Szél: É 18.5 km/h
Hőmérséklet: 1°C
Szélhűtés: -4°C
Harmatpont: -7°C
Páratartalom: 56%
Légnyomás: 1026 hPa
Látótávolság: More than 10 km
Felhő fajták: Derült
LHPA 051945Z 35010KT CAVOK 01/M07 Q1026 NOSIG RMK BLU
LZSL - Sliac, Slovakia
Távolság az állomástól: É 116 km
Frissítve: Mar 5 2021 11:22 am
NOT Current
Erősen felhős  
Erősen felhős  
   Szél: É 11.1 km/h
Szél: É 11.1 km/h
Hőmérséklet: 5°C
Szélhűtés: 2°C
Harmatpont: 5°C
Páratartalom: 100%
Légnyomás: 1012 hPa
Felhők: Erősen felhős
Látótávolság: More than 10 km
Felhő fajták: Kissé felhős 1000 ft,
Erősen felhős 3700 ft,
Erősen felhős 10000 ft
LZSL 051022Z 35006KT 9999 FEW010 BKN037 BKN100 05/05 Q1012 RERA
LOWW - Wien, Austria
Távolság az állomástól: NY 195 km
Frissítve: Mar 5 2021 8:50 pm
Kissé felhős  
Kissé felhős  
   Szél: ÉÉNY 20.4 km/h
Szél: ÉÉNY 20.4 km/h
Hőmérséklet: 0°C
Szélhűtés: -5°C
Harmatpont: -5°C
Páratartalom: 69%
Légnyomás: 1027 hPa
Felhők: Kissé felhős
Látótávolság: More than 10 km
Felhő fajták: Kissé felhős 5000 ft
LOWW 051950Z 33011KT 9999 FEW050 00/M05 Q1027 NOSIG

Eredeti script  Saratoga-weather.org Adapted for the template by  Weerstation Leuven